createdAt,value
2023-04-28T00:00:58.245Z,22.74
2023-04-28T00:03:03.409Z,22.72
2023-04-28T00:05:09.104Z,22.71
2023-04-28T00:07:14.632Z,22.7
2023-04-28T00:09:19.641Z,22.68
2023-04-28T00:11:24.711Z,22.67
2023-04-28T00:13:29.787Z,22.66
2023-04-28T00:15:34.843Z,22.64
2023-04-28T00:17:40.006Z,22.63
2023-04-28T00:19:45.247Z,22.63
2023-04-28T00:21:50.344Z,22.61
2023-04-28T00:23:55.674Z,22.6
2023-04-28T00:26:00.759Z,22.6
2023-04-28T00:28:05.875Z,22.58
2023-04-28T00:30:10.975Z,22.57
2023-04-28T00:32:16.076Z,22.56
2023-04-28T00:34:21.163Z,22.55
2023-04-28T00:36:26.219Z,22.54
2023-04-28T00:38:31.278Z,22.54
2023-04-28T00:40:36.331Z,22.53
2023-04-28T00:42:41.342Z,22.53
2023-04-28T00:44:46.458Z,22.52
2023-04-28T00:46:51.489Z,22.51
2023-04-28T00:48:56.631Z,22.5
2023-04-28T00:51:01.688Z,22.5
2023-04-28T00:53:06.743Z,22.5
2023-04-28T00:55:11.775Z,22.5
2023-04-28T00:57:16.851Z,22.49
2023-04-28T00:59:21.900Z,22.49
2023-04-28T01:01:26.982Z,22.47
2023-04-28T01:03:32.228Z,22.47
2023-04-28T01:05:37.782Z,22.47
2023-04-28T01:07:42.829Z,22.46
2023-04-28T01:09:48.038Z,22.48
2023-04-28T01:11:53.166Z,22.47
2023-04-28T01:13:58.346Z,22.47
2023-04-28T01:16:03.413Z,22.46
2023-04-28T01:18:08.601Z,22.46
2023-04-28T01:20:13.827Z,22.46
2023-04-28T01:22:18.903Z,22.46
2023-04-28T01:24:23.944Z,22.45
2023-04-28T01:26:29.016Z,22.45
2023-04-28T01:28:34.082Z,22.44
2023-04-28T01:30:39.125Z,22.43
2023-04-28T01:32:44.233Z,22.42
2023-04-28T01:34:49.436Z,22.42
2023-04-28T01:36:54.592Z,22.41
2023-04-28T01:38:59.721Z,22.41
2023-04-28T01:41:04.853Z,22.42
2023-04-28T01:43:10.078Z,22.42
2023-04-28T01:45:15.090Z,22.4
2023-04-28T01:47:20.198Z,22.4
2023-04-28T01:49:25.414Z,22.38
2023-04-28T01:51:30.562Z,22.37
2023-04-28T01:53:35.577Z,22.38
2023-04-28T01:55:40.624Z,22.37
2023-04-28T01:57:45.656Z,22.37
2023-04-28T01:59:50.736Z,22.37
2023-04-28T02:01:55.844Z,22.35
2023-04-28T02:04:01.420Z,22.36
2023-04-28T02:06:06.995Z,22.36
2023-04-28T02:08:12.044Z,22.37
2023-04-28T02:10:17.075Z,22.37
2023-04-28T02:12:22.099Z,22.39
2023-04-28T02:14:28.814Z,22.39
2023-04-28T02:16:34.060Z,22.4
2023-04-28T02:18:39.338Z,22.41
2023-04-28T02:20:44.364Z,22.4
2023-04-28T02:22:49.515Z,22.39
2023-04-28T02:24:54.522Z,22.37
2023-04-28T02:26:59.671Z,22.36
2023-04-28T02:29:04.697Z,22.36
2023-04-28T02:31:09.781Z,22.35
2023-04-28T02:33:14.960Z,22.34
2023-04-28T02:35:19.998Z,22.33
2023-04-28T02:37:25.151Z,22.3
2023-04-28T02:39:30.247Z,22.29
2023-04-28T02:41:35.397Z,22.29
2023-04-28T02:43:40.418Z,22.3
2023-04-28T02:45:45.545Z,22.29
2023-04-28T02:47:50.628Z,22.29
2023-04-28T02:49:55.809Z,22.3
2023-04-28T02:52:00.853Z,22.29
2023-04-28T02:54:05.859Z,22.28
2023-04-28T02:56:10.916Z,22.28
2023-04-28T02:58:15.990Z,22.28
2023-04-28T03:00:21.332Z,22.27
2023-04-28T03:02:26.522Z,22.27
2023-04-28T03:05:57.897Z,22.23
2023-04-28T03:08:02.946Z,22.23
2023-04-28T03:10:08.089Z,22.22
2023-04-28T03:12:13.225Z,22.23
2023-04-28T03:14:18.355Z,22.24
2023-04-28T03:16:23.540Z,22.22
2023-04-28T03:18:28.779Z,22.22
2023-04-28T03:20:33.854Z,22.24
2023-04-28T03:22:38.925Z,22.23
2023-04-28T03:24:44.007Z,22.23
2023-04-28T03:26:49.052Z,22.23
2023-04-28T03:28:54.110Z,22.22
2023-04-28T03:30:59.156Z,22.2
2023-04-28T03:33:04.275Z,22.2
2023-04-28T03:35:09.565Z,22.19
2023-04-28T03:37:14.651Z,22.18
2023-04-28T03:39:19.689Z,22.16
2023-04-28T03:41:24.749Z,22.16
2023-04-28T03:43:29.785Z,22.14
2023-04-28T03:45:34.860Z,22.13
2023-04-28T03:47:40.074Z,22.1
2023-04-28T03:49:45.102Z,22.08
2023-04-28T03:51:50.161Z,22.08
2023-04-28T03:53:55.320Z,22.08
2023-04-28T03:56:00.399Z,22.06
2023-04-28T03:58:05.492Z,22.05
2023-04-28T04:00:10.659Z,22.05
2023-04-28T04:02:15.699Z,22.04
2023-04-28T04:04:21.470Z,22.02
2023-04-28T04:06:28.684Z,22.02
2023-04-28T04:08:33.708Z,22.02
2023-04-28T04:10:38.752Z,22.01
2023-04-28T04:12:43.826Z,22.01
2023-04-28T04:14:48.870Z,22
2023-04-28T04:16:53.902Z,22
2023-04-28T04:18:58.985Z,22
2023-04-28T04:21:04.002Z,21.99
2023-04-28T04:23:09.032Z,21.98
2023-04-28T04:25:14.097Z,21.97
2023-04-28T04:27:19.242Z,21.98
2023-04-28T04:29:24.290Z,21.97
2023-04-28T04:31:29.437Z,21.97
2023-04-28T04:33:34.664Z,21.97
2023-04-28T04:35:39.759Z,21.97
2023-04-28T04:37:44.824Z,21.97
2023-04-28T04:39:49.946Z,21.97
2023-04-28T04:41:54.958Z,21.95
2023-04-28T04:44:00.130Z,21.95
2023-04-28T04:46:05.309Z,21.95
2023-04-28T04:48:10.595Z,21.93
2023-04-28T04:50:15.870Z,21.94
2023-04-28T04:52:20.952Z,21.93
2023-04-28T04:54:25.981Z,21.91
2023-04-28T04:56:31.098Z,21.92
2023-04-28T04:58:36.123Z,21.93
2023-04-28T05:00:41.190Z,21.91
2023-04-28T05:02:46.320Z,21.9
2023-04-28T05:04:52.114Z,21.91
2023-04-28T05:07:10.889Z,21.9
2023-04-28T05:09:15.923Z,21.91
2023-04-28T05:11:21.077Z,21.88
2023-04-28T05:13:26.092Z,21.9
2023-04-28T05:15:31.136Z,21.95
2023-04-28T05:17:36.247Z,22.03
2023-04-28T05:19:41.401Z,22.11
2023-04-28T05:21:46.446Z,22.19
2023-04-28T05:23:51.600Z,22.26
2023-04-28T05:25:56.663Z,22.32
2023-04-28T05:28:01.678Z,22.38
2023-04-28T05:30:06.751Z,22.42
2023-04-28T05:32:11.987Z,22.47
2023-04-28T05:34:17.776Z,22.5
2023-04-28T05:36:23.392Z,22.53
2023-04-28T05:38:28.519Z,22.58
2023-04-28T05:40:33.589Z,22.62
2023-04-28T05:42:38.653Z,22.66
2023-04-28T05:44:43.806Z,22.69
2023-04-28T05:46:48.961Z,22.72
2023-04-28T05:48:54.376Z,22.7
2023-04-28T05:50:59.396Z,22.73
2023-04-28T05:53:04.471Z,22.73
2023-04-28T05:55:09.609Z,22.76
2023-04-28T05:57:14.633Z,22.8
2023-04-28T05:59:19.746Z,22.86
2023-04-28T06:01:24.820Z,22.9
2023-04-28T06:03:29.966Z,22.95
2023-04-28T06:05:36.083Z,23.01
2023-04-28T06:07:42.026Z,23.06
2023-04-28T06:09:47.111Z,23.11
2023-04-28T06:11:52.187Z,23.13
2023-04-28T06:13:57.215Z,23.16
2023-04-28T06:16:02.262Z,23.19
2023-04-28T06:18:07.576Z,23.2
2023-04-28T06:20:12.975Z,23.23
2023-04-28T06:22:18.075Z,23.23
2023-04-28T06:24:23.143Z,23.26
2023-04-28T06:26:28.218Z,23.27
2023-04-28T06:28:33.294Z,23.27
2023-04-28T06:30:38.356Z,23.28
2023-04-28T06:32:43.433Z,23.29
2023-04-28T06:34:48.683Z,23.3
2023-04-28T06:36:53.775Z,23.31
2023-04-28T06:38:58.905Z,23.32
2023-04-28T06:41:04.028Z,23.31
2023-04-28T06:43:09.162Z,23.33
2023-04-28T06:45:14.123Z,23.36
2023-04-28T06:47:19.601Z,23.43
2023-04-28T06:49:24.585Z,23.48
2023-04-28T06:51:29.644Z,23.5
2023-04-28T06:53:34.791Z,23.53
2023-04-28T06:55:39.908Z,23.51
2023-04-28T06:57:44.935Z,23.5
2023-04-28T06:59:50.097Z,23.48
2023-04-28T07:01:55.172Z,23.44
2023-04-28T07:04:00.488Z,23.42
2023-04-28T07:06:06.089Z,23.39
2023-04-28T07:08:11.220Z,23.38
2023-04-28T07:10:17.537Z,23.37
2023-04-28T07:12:22.579Z,23.36
2023-04-28T07:14:27.641Z,23.37
2023-04-28T07:16:32.710Z,23.35
2023-04-28T07:18:37.894Z,23.34
2023-04-28T07:20:42.972Z,23.32
2023-04-28T07:22:48.052Z,23.29
2023-04-28T07:24:53.158Z,23.26
2023-04-28T07:26:58.653Z,23.25
2023-04-28T07:29:03.679Z,23.21
2023-04-28T07:31:08.813Z,23.19
2023-04-28T07:33:13.868Z,23.16
2023-04-28T07:35:19.278Z,23.17
2023-04-28T07:37:24.413Z,23.17
2023-04-28T07:39:29.452Z,23.16
2023-04-28T07:41:35.062Z,23.16
2023-04-28T07:43:40.313Z,23.16
2023-04-28T07:45:45.455Z,23.16
2023-04-28T07:47:50.820Z,23.16
2023-04-28T07:49:56.028Z,23.16
2023-04-28T07:52:01.139Z,23.13
2023-04-28T07:54:06.216Z,23.14
2023-04-28T07:56:11.317Z,23.15
2023-04-28T07:58:16.354Z,23.19
2023-04-28T08:00:21.429Z,23.22
2023-04-28T08:02:26.693Z,23.24
2023-04-28T08:04:32.406Z,23.27
2023-04-28T08:06:39.998Z,23.3
2023-04-28T08:08:45.119Z,23.31
2023-04-28T08:10:50.363Z,23.33
2023-04-28T08:12:55.394Z,23.35
2023-04-28T08:15:00.544Z,23.36
2023-04-28T08:17:05.642Z,23.38
2023-04-28T08:19:10.691Z,23.38
2023-04-28T08:21:15.738Z,23.39
2023-04-28T08:23:20.797Z,23.4
2023-04-28T08:25:25.839Z,23.4
2023-04-28T08:27:30.894Z,23.41
2023-04-28T08:29:36.108Z,23.41
2023-04-28T08:31:41.319Z,23.41
2023-04-28T08:33:47.125Z,23.43
2023-04-28T08:35:52.179Z,23.42
2023-04-28T08:37:57.291Z,23.44
2023-04-28T08:40:02.503Z,23.46
2023-04-28T08:42:07.566Z,23.46
2023-04-28T08:44:12.624Z,23.48
2023-04-28T08:46:18.367Z,23.48
2023-04-28T08:48:23.592Z,23.49
2023-04-28T08:50:28.634Z,23.49
2023-04-28T08:52:33.710Z,23.49
2023-04-28T08:54:38.708Z,23.48
2023-04-28T08:56:43.810Z,23.48
2023-04-28T08:58:48.906Z,23.49
2023-04-28T09:00:54.059Z,23.51
2023-04-28T09:02:59.292Z,23.51
2023-04-28T09:05:05.331Z,23.53
2023-04-28T09:07:11.422Z,23.52
2023-04-28T09:09:16.657Z,23.51
2023-04-28T09:11:21.747Z,23.53
2023-04-28T09:13:26.876Z,23.53
2023-04-28T09:15:33.712Z,23.52
2023-04-28T09:17:39.299Z,23.53
2023-04-28T09:19:44.490Z,23.54
2023-04-28T09:21:49.585Z,23.56
2023-04-28T09:23:54.823Z,23.56
2023-04-28T09:25:59.916Z,23.55
2023-04-28T09:28:05.085Z,23.56
2023-04-28T09:30:10.118Z,23.56
2023-04-28T09:32:15.501Z,23.55
2023-04-28T09:34:21.269Z,23.53
2023-04-28T09:36:26.277Z,23.53
2023-04-28T09:38:31.348Z,23.53
2023-04-28T09:40:36.450Z,23.54
2023-04-28T09:42:41.640Z,23.54
2023-04-28T09:44:47.123Z,23.58
2023-04-28T09:46:52.205Z,23.61
2023-04-28T09:48:57.227Z,23.65
2023-04-28T09:51:02.290Z,23.68
2023-04-28T09:53:07.444Z,23.74
2023-04-28T09:55:12.514Z,23.78
2023-04-28T09:57:17.576Z,23.81
2023-04-28T09:59:22.827Z,23.83
2023-04-28T10:01:28.281Z,23.87
2023-04-28T10:03:33.651Z,23.88
2023-04-28T10:05:39.310Z,23.9
2023-04-28T10:07:44.633Z,23.93
2023-04-28T10:09:49.795Z,23.94
2023-04-28T10:11:54.927Z,23.93
2023-04-28T10:13:59.972Z,23.94
2023-04-28T10:16:05.033Z,23.95
2023-04-28T10:18:10.242Z,23.96
2023-04-28T10:20:15.593Z,23.96
2023-04-28T10:22:20.601Z,23.96
2023-04-28T10:24:25.733Z,23.97
2023-04-28T10:26:30.790Z,23.98
2023-04-28T10:28:36.088Z,23.97
2023-04-28T10:30:41.159Z,23.96
2023-04-28T10:32:46.282Z,23.99
2023-04-28T10:34:51.454Z,23.99
2023-04-28T10:36:56.583Z,24
2023-04-28T10:39:01.608Z,24
2023-04-28T10:41:06.665Z,24
2023-04-28T10:43:11.721Z,24
2023-04-28T10:45:16.802Z,23.99
2023-04-28T10:47:21.867Z,24
2023-04-28T10:49:27.086Z,24
2023-04-28T10:51:32.259Z,24.01
2023-04-28T10:53:37.492Z,24.02
2023-04-28T10:55:42.626Z,24.03
2023-04-28T10:57:47.786Z,24.04
2023-04-28T10:59:52.836Z,24.04
2023-04-28T11:01:57.898Z,24.05
2023-04-28T11:04:03.502Z,24.05
2023-04-28T11:06:09.363Z,24.06
2023-04-28T11:08:14.482Z,24.06
2023-04-28T11:10:19.514Z,24.07
2023-04-28T11:12:24.574Z,24.08
2023-04-28T11:14:29.643Z,24.1
2023-04-28T11:16:34.805Z,24.1
2023-04-28T11:18:40.025Z,24.11
2023-04-28T11:20:45.049Z,24.13
2023-04-28T11:22:50.103Z,24.15
2023-04-28T11:24:55.197Z,24.15
2023-04-28T11:27:00.410Z,24.16
2023-04-28T11:29:05.530Z,24.17
2023-04-28T11:31:10.548Z,24.18
2023-04-28T11:33:15.615Z,24.19
2023-04-28T11:35:20.726Z,24.2
2023-04-28T11:37:25.906Z,24.21
2023-04-28T11:39:31.317Z,24.21
2023-04-28T11:41:36.401Z,24.23
2023-04-28T11:43:47.237Z,24.24
2023-04-28T11:45:52.661Z,24.25
2023-04-28T11:47:57.806Z,24.26
2023-04-28T11:50:03.407Z,24.27
2023-04-28T11:52:08.696Z,24.27
2023-04-28T11:54:13.848Z,24.27
2023-04-28T11:56:19.048Z,24.28
2023-04-28T11:58:24.308Z,24.28
2023-04-28T12:00:29.552Z,24.3
2023-04-28T12:02:34.666Z,24.29
2023-04-28T12:04:40.107Z,24.31
2023-04-28T12:06:45.199Z,24.32
2023-04-28T12:08:50.288Z,24.32
2023-04-28T12:10:55.400Z,24.31
2023-04-28T12:13:00.428Z,24.3
2023-04-28T12:15:05.447Z,24.32
2023-04-28T12:17:10.520Z,24.3
2023-04-28T12:19:15.741Z,24.31
2023-04-28T12:21:20.824Z,24.32
2023-04-28T12:23:25.876Z,24.32
2023-04-28T12:25:30.930Z,24.32
2023-04-28T12:27:37.306Z,24.32
2023-04-28T12:29:43.871Z,24.32
2023-04-28T12:31:50.142Z,24.33
2023-04-28T12:33:55.508Z,24.33
2023-04-28T12:36:00.576Z,24.35
2023-04-28T12:38:05.620Z,24.37
2023-04-28T12:40:10.681Z,24.38
2023-04-28T12:42:15.807Z,24.37
2023-04-28T12:44:20.934Z,24.39
2023-04-28T12:46:26.018Z,24.42
2023-04-28T12:48:31.201Z,24.42
2023-04-28T12:50:36.269Z,24.42
2023-04-28T12:52:41.397Z,24.42
2023-04-28T12:54:46.519Z,24.36
2023-04-28T12:56:51.632Z,24.27
2023-04-28T12:58:56.743Z,24.18
2023-04-28T13:01:01.800Z,24.18
2023-04-28T13:03:07.115Z,24.17
2023-04-28T13:05:12.996Z,24.18
2023-04-28T13:07:18.194Z,24.19
2023-04-28T13:09:23.336Z,24.22
2023-04-28T13:11:28.396Z,24.25
2023-04-28T13:13:33.415Z,24.25
2023-04-28T13:15:38.959Z,24.27
2023-04-28T13:17:44.166Z,24.3
2023-04-28T13:19:49.397Z,24.31
2023-04-28T13:21:54.613Z,24.33
2023-04-28T13:24:00.002Z,24.34
2023-04-28T13:26:05.057Z,24.36
2023-04-28T13:28:10.163Z,24.36
2023-04-28T13:30:15.275Z,24.34
2023-04-28T13:32:20.346Z,24.32
2023-04-28T13:34:25.545Z,24.33
2023-04-28T13:36:30.729Z,24.33
2023-04-28T13:38:35.873Z,24.34
2023-04-28T13:40:40.925Z,24.35
2023-04-28T13:42:46.086Z,24.34
2023-04-28T13:44:51.127Z,24.35
2023-04-28T13:46:56.160Z,24.35
2023-04-28T13:49:01.264Z,24.34
2023-04-28T13:51:06.353Z,24.34
2023-04-28T13:53:11.443Z,24.33
2023-04-28T13:55:16.569Z,24.32
2023-04-28T13:57:21.736Z,24.33
2023-04-28T13:59:26.757Z,24.33
2023-04-28T14:01:31.906Z,24.33
2023-04-28T14:03:37.171Z,24.33
2023-04-28T14:05:49.206Z,24.32
2023-04-28T14:07:54.868Z,24.31
2023-04-28T14:10:00.082Z,24.28
2023-04-28T14:12:05.305Z,24.29
2023-04-28T14:14:10.417Z,24.31
2023-04-28T14:16:15.535Z,24.33
2023-04-28T14:18:20.820Z,24.35
2023-04-28T14:20:27.443Z,24.35
2023-04-28T14:22:33.121Z,24.34
2023-04-28T14:24:38.197Z,24.32
2023-04-28T14:26:43.311Z,24.32
2023-04-28T14:28:48.384Z,24.29
2023-04-28T14:30:53.550Z,24.26
2023-04-28T14:32:58.736Z,24.26
2023-04-28T14:35:04.130Z,24.28
2023-04-28T14:37:09.362Z,24.28
2023-04-28T14:39:14.594Z,24.29
2023-04-28T14:41:19.751Z,24.3
2023-04-28T14:43:24.882Z,24.29
2023-04-28T14:45:29.996Z,24.32
2023-04-28T14:47:35.157Z,24.32
2023-04-28T14:49:40.325Z,24.36
2023-04-28T14:51:45.441Z,24.35
2023-04-28T14:53:50.529Z,24.33
2023-04-28T14:55:59.581Z,24.29
2023-04-28T14:58:22.568Z,24.28
2023-04-28T15:00:27.799Z,24.27
2023-04-28T15:02:32.892Z,24.27
2023-04-28T15:04:38.384Z,24.29
2023-04-28T15:06:43.767Z,24.3
2023-04-28T15:08:48.840Z,24.29
2023-04-28T15:10:53.934Z,24.3
2023-04-28T15:12:58.985Z,24.28
2023-04-28T15:15:04.164Z,24.28
2023-04-28T15:17:09.131Z,24.29
2023-04-28T15:19:14.080Z,24.32
2023-04-28T15:21:19.105Z,24.34
2023-04-28T15:23:24.221Z,24.35
2023-04-28T15:25:29.255Z,24.35
2023-04-28T15:27:34.296Z,24.32
2023-04-28T15:29:39.475Z,24.26
2023-04-28T15:31:44.759Z,24.23
2023-04-28T15:33:49.821Z,24.19
2023-04-28T15:35:54.810Z,24.12
2023-04-28T15:37:59.845Z,24.11
2023-04-28T15:40:04.862Z,24.07
2023-04-28T15:42:09.974Z,23.91
2023-04-28T15:44:14.999Z,23.73
2023-04-28T15:46:20.082Z,23.66
2023-04-28T15:48:25.410Z,23.54
2023-04-28T15:50:30.463Z,23.43
2023-04-28T15:52:35.513Z,23.27
2023-04-28T15:54:40.603Z,23.15
2023-04-28T15:56:45.624Z,23.08
2023-04-28T15:58:50.785Z,23.03
2023-04-28T16:00:56.041Z,22.99
2023-04-28T16:03:01.478Z,22.92
2023-04-28T16:05:07.088Z,22.84
2023-04-28T16:07:12.185Z,22.75
2023-04-28T16:09:17.201Z,22.73
2023-04-28T16:11:22.212Z,22.67
2023-04-28T16:13:27.298Z,22.68
2023-04-28T16:15:32.704Z,22.7
2023-04-28T16:17:37.700Z,22.75
2023-04-28T16:19:42.961Z,22.78
2023-04-28T16:21:48.063Z,22.81
2023-04-28T16:23:53.099Z,22.87
2023-04-28T16:25:58.139Z,22.9
2023-04-28T16:28:03.255Z,22.94
2023-04-28T16:30:08.312Z,23.03
2023-04-28T16:32:13.465Z,23.12
2023-04-28T16:34:19.004Z,23.24
2023-04-28T16:36:24.020Z,23.23
2023-04-28T16:38:29.178Z,23.13
2023-04-28T16:40:34.176Z,22.98
2023-04-28T16:42:39.311Z,22.96
2023-04-28T16:44:44.652Z,22.92
2023-04-28T16:46:49.736Z,22.85
2023-04-28T16:48:54.771Z,22.74
2023-04-28T16:50:59.784Z,22.76
2023-04-28T16:53:04.794Z,22.87
2023-04-28T16:55:09.858Z,23.01
2023-04-28T16:57:15.018Z,23.15
2023-04-28T16:59:20.018Z,23.28
2023-04-28T17:01:25.197Z,23.39
2023-04-28T17:03:31.809Z,23.48
2023-04-28T17:05:37.516Z,23.56
2023-04-28T17:07:42.646Z,23.62
2023-04-28T17:09:47.725Z,23.67
2023-04-28T17:11:53.444Z,23.71
2023-04-28T17:13:58.437Z,23.76
2023-04-28T17:16:03.482Z,23.8
2023-04-28T17:18:08.817Z,23.84
2023-04-28T17:20:13.835Z,23.89
2023-04-28T17:22:18.857Z,23.91
2023-04-28T17:24:23.919Z,23.94
2023-04-28T17:26:28.942Z,23.92
2023-04-28T17:28:33.983Z,23.9
2023-04-28T17:30:39.158Z,23.89
2023-04-28T17:32:50.341Z,23.89
2023-04-28T17:34:55.512Z,23.94
2023-04-28T17:37:00.510Z,23.95
2023-04-28T17:39:05.576Z,23.97
2023-04-28T17:41:10.605Z,23.98
2023-04-28T17:43:15.632Z,24
2023-04-28T17:45:20.732Z,24.04
2023-04-28T17:47:25.778Z,24.06
2023-04-28T17:49:30.866Z,24.07
2023-04-28T17:51:35.971Z,24.09
2023-04-28T17:53:41.093Z,24.1
2023-04-28T17:55:46.328Z,24.13
2023-04-28T17:57:51.378Z,24.14
2023-04-28T17:59:56.498Z,24.17
2023-04-28T18:02:01.549Z,24.18
2023-04-28T18:04:06.840Z,24.18
2023-04-28T18:06:12.088Z,24.21
2023-04-28T18:08:18.044Z,24.23
2023-04-28T18:10:23.092Z,24.22
2023-04-28T18:12:28.090Z,24.22
2023-04-28T18:14:33.136Z,24.24
2023-04-28T18:16:38.230Z,24.24
2023-04-28T18:18:43.478Z,24.25
2023-04-28T18:20:48.543Z,24.28
2023-04-28T18:22:53.641Z,24.31
2023-04-28T18:24:58.711Z,24.31
2023-04-28T18:27:03.748Z,24.31
2023-04-28T18:29:08.761Z,24.31
2023-04-28T18:31:13.880Z,24.29
2023-04-28T18:33:21.399Z,24.27
2023-04-28T18:35:27.637Z,24.27
2023-04-28T18:37:32.663Z,24.22
2023-04-28T18:39:37.658Z,24.21
2023-04-28T18:41:42.696Z,24.2
2023-04-28T18:43:47.826Z,24.21
2023-04-28T18:45:52.920Z,24.23
2023-04-28T18:47:58.227Z,24.23
2023-04-28T18:50:04.834Z,24.24
2023-04-28T18:52:09.809Z,24.25
2023-04-28T18:54:14.848Z,24.26
2023-04-28T18:56:19.897Z,24.25
2023-04-28T18:58:24.903Z,24.26
2023-04-28T19:00:29.915Z,24.27
2023-04-28T19:02:35.000Z,24.31
2023-04-28T19:04:40.831Z,24.28
2023-04-28T19:06:46.244Z,24.28
2023-04-28T19:08:51.202Z,24.26
2023-04-28T19:10:56.327Z,24.27
2023-04-28T19:13:01.374Z,24.26
2023-04-28T19:15:06.403Z,24.27
2023-04-28T19:17:11.505Z,24.3
2023-04-28T19:19:16.868Z,24.33
2023-04-28T19:21:21.850Z,24.32
2023-04-28T19:23:26.957Z,24.3
2023-04-28T19:25:31.986Z,24.32
2023-04-28T19:27:37.081Z,24.29
2023-04-28T19:29:42.186Z,24.28
2023-04-28T19:31:47.182Z,24.3
2023-04-28T19:33:52.278Z,24.3
2023-04-28T19:35:57.385Z,24.31
2023-04-28T19:38:02.414Z,24.36
2023-04-28T19:40:07.567Z,24.38
2023-04-28T19:42:12.635Z,24.37
2023-04-28T19:44:17.643Z,24.35
2023-04-28T19:46:22.792Z,24.33
2023-04-28T19:48:27.957Z,24.32
2023-04-28T19:50:33.068Z,24.31
2023-04-28T19:52:38.158Z,24.29
2023-04-28T19:54:43.165Z,24.26
2023-04-28T19:56:48.187Z,24.25
2023-04-28T19:58:53.175Z,24.25
2023-04-28T20:00:58.214Z,24.23
2023-04-28T20:03:03.324Z,24.23
2023-04-28T20:05:08.824Z,24.21
2023-04-28T20:07:13.812Z,24.21
2023-04-28T20:09:19.023Z,24.23
2023-04-28T20:11:24.090Z,24.22
2023-04-28T20:13:29.161Z,24.22
2023-04-28T20:15:34.332Z,24.18
2023-04-28T20:17:39.441Z,24.16
2023-04-28T20:19:44.831Z,24.12
2023-04-28T20:21:49.862Z,24.19
2023-04-28T20:23:54.945Z,24.19
2023-04-28T20:25:59.990Z,24.16
2023-04-28T20:28:04.979Z,24.16
2023-04-28T20:30:09.990Z,24.17
2023-04-28T20:32:14.989Z,24.15
2023-04-28T20:34:19.958Z,24.15
2023-04-28T20:36:24.997Z,24.12
2023-04-28T20:38:30.088Z,24.13
2023-04-28T20:40:35.201Z,24.13
2023-04-28T20:42:40.303Z,24.13
2023-04-28T20:44:45.390Z,24.12
2023-04-28T20:46:50.588Z,24.14
2023-04-28T20:48:55.704Z,24.18
2023-04-28T20:51:00.711Z,24.17
2023-04-28T20:53:05.725Z,24.19
2023-04-28T20:55:10.707Z,24.2
2023-04-28T20:57:15.769Z,24.17
2023-04-28T20:59:20.753Z,24.15
2023-04-28T21:01:25.806Z,24.17
2023-04-28T21:03:31.181Z,24.15
2023-04-28T21:05:36.476Z,24.09
2023-04-28T21:07:41.462Z,24.06
2023-04-28T21:09:46.479Z,24.04
2023-04-28T21:11:51.617Z,24.03
2023-04-28T21:13:56.695Z,24.02
2023-04-28T21:16:01.735Z,24.01
2023-04-28T21:18:06.967Z,24.02
2023-04-28T21:20:12.620Z,24.02
2023-04-28T21:22:17.625Z,24.02
2023-04-28T21:24:22.663Z,24.01
2023-04-28T21:26:27.674Z,24.02
2023-04-28T21:28:32.771Z,24.02
2023-04-28T21:30:37.813Z,24.02
2023-04-28T21:32:42.830Z,24
2023-04-28T21:34:47.923Z,24
2023-04-28T21:36:52.986Z,23.99
2023-04-28T21:38:57.977Z,23.97
2023-04-28T21:41:03.051Z,23.96
2023-04-28T21:43:08.064Z,23.95
2023-04-28T21:45:13.094Z,23.92
2023-04-28T21:47:18.161Z,23.92
2023-04-28T21:49:23.304Z,23.92
2023-04-28T21:51:28.375Z,23.91
2023-04-28T21:53:33.445Z,23.92
2023-04-28T21:55:38.573Z,23.91
2023-04-28T21:57:43.618Z,23.91
2023-04-28T21:59:48.853Z,23.9
2023-04-28T22:01:54.658Z,23.93
2023-04-28T22:03:59.818Z,23.92
2023-04-28T22:06:05.675Z,23.91
2023-04-28T22:08:10.741Z,23.87
2023-04-28T22:10:15.840Z,23.87
2023-04-28T22:12:20.886Z,23.88
2023-04-28T22:14:40.111Z,23.88
2023-04-28T22:16:45.788Z,23.88
2023-04-28T22:18:50.767Z,23.9
2023-04-28T22:20:55.771Z,23.87
2023-04-28T22:23:00.932Z,23.89
2023-04-28T22:25:05.950Z,23.86
2023-04-28T22:27:10.995Z,23.86
2023-04-28T22:29:15.991Z,23.85
2023-04-28T22:31:21.019Z,23.85
2023-04-28T22:33:26.325Z,23.86
2023-04-28T22:35:31.268Z,23.87
2023-04-28T22:37:36.263Z,23.86
2023-04-28T22:39:41.233Z,23.84
2023-04-28T22:41:46.243Z,23.83
2023-04-28T22:43:51.251Z,23.83
2023-04-28T22:45:56.179Z,23.85
2023-04-28T22:48:02.354Z,23.83
2023-04-28T22:50:07.705Z,23.82
2023-04-28T22:52:12.706Z,23.81
2023-04-28T22:54:17.692Z,23.79
2023-04-28T22:56:22.685Z,23.8
2023-04-28T22:58:27.719Z,23.84
2023-04-28T23:00:32.752Z,23.89
2023-04-28T23:02:37.808Z,23.91
2023-04-28T23:04:43.410Z,23.88
2023-04-28T23:06:48.803Z,23.86
2023-04-28T23:08:53.904Z,23.83
2023-04-28T23:10:58.926Z,23.81
2023-04-28T23:13:03.909Z,23.79
2023-04-28T23:15:08.934Z,23.77
2023-04-28T23:17:13.931Z,23.75
2023-04-28T23:19:20.662Z,23.74
2023-04-28T23:21:25.771Z,23.74
2023-04-28T23:23:30.734Z,23.74
2023-04-28T23:25:35.836Z,23.72
2023-04-28T23:27:40.838Z,23.72
2023-04-28T23:29:45.919Z,23.71
2023-04-28T23:31:50.987Z,23.7
2023-04-28T23:33:56.648Z,23.74
2023-04-28T23:36:01.746Z,23.72
2023-04-28T23:38:06.760Z,23.73
2023-04-28T23:40:11.768Z,23.72
2023-04-28T23:42:17.032Z,23.7
2023-04-28T23:44:22.036Z,23.71
2023-04-28T23:46:27.018Z,23.69
2023-04-28T23:48:32.032Z,23.68
2023-04-28T23:50:37.023Z,23.68
2023-04-28T23:52:41.982Z,23.69
2023-04-28T23:54:47.042Z,23.67
2023-04-28T23:56:52.049Z,23.68
2023-04-28T23:58:57.108Z,23.69
